createdAt,value
2022-11-29T00:01:39.870Z,9.89
2022-11-29T00:04:07.502Z,9.86
2022-11-29T00:06:36.000Z,9.75
2022-11-29T00:09:08.364Z,9.87
2022-11-29T00:11:57.026Z,9.85
2022-11-29T00:14:27.519Z,10.16
2022-11-29T00:16:59.461Z,10.14
2022-11-29T00:19:26.516Z,10.14
2022-11-29T00:21:53.858Z,10.33
2022-11-29T00:24:21.209Z,10.20
2022-11-29T00:26:48.597Z,10.35
2022-11-29T00:29:15.999Z,10.17
2022-11-29T00:31:44.012Z,10.22
2022-11-29T00:34:12.457Z,10.10
2022-11-29T00:36:40.859Z,10.27
2022-11-29T00:39:11.619Z,10.11
2022-11-29T00:41:39.200Z,9.89
2022-11-29T00:44:06.371Z,9.98
2022-11-29T00:46:33.921Z,9.97
2022-11-29T00:49:01.172Z,10.00
2022-11-29T00:51:28.904Z,9.99
2022-11-29T00:53:55.879Z,10.22
2022-11-29T00:56:23.019Z,10.01
2022-11-29T00:58:50.926Z,10.17
2022-11-29T01:01:18.236Z,10.35
2022-11-29T01:03:45.805Z,10.21
2022-11-29T01:06:15.621Z,10.32
2022-11-29T01:08:43.346Z,10.14
2022-11-29T01:11:24.742Z,10.34
2022-11-29T01:13:57.705Z,10.64
2022-11-29T01:16:25.864Z,10.42
2022-11-29T01:18:52.941Z,10.65
2022-11-29T01:21:22.592Z,10.54
2022-11-29T01:23:52.689Z,10.56
2022-11-29T01:26:26.342Z,10.45
2022-11-29T01:28:55.388Z,10.32
2022-11-29T01:31:32.869Z,10.27
2022-11-29T01:34:02.938Z,10.29
2022-11-29T01:36:30.811Z,10.52
2022-11-29T01:39:01.624Z,10.60
2022-11-29T01:41:32.795Z,10.68
2022-11-29T01:44:04.748Z,10.50
2022-11-29T01:46:38.860Z,10.60
2022-11-29T01:49:20.202Z,10.53
2022-11-29T01:52:03.790Z,10.57
2022-11-29T01:54:35.090Z,10.43
2022-11-29T01:57:07.466Z,10.61
2022-11-29T01:59:37.228Z,10.55
2022-11-29T02:02:14.619Z,10.54
2022-11-29T02:04:45.132Z,10.45
2022-11-29T02:07:12.808Z,10.40
2022-11-29T02:09:40.112Z,10.55
2022-11-29T02:12:51.793Z,10.37
2022-11-29T02:16:03.800Z,10.16
2022-11-29T02:19:00.276Z,10.40
2022-11-29T02:21:54.616Z,10.59
2022-11-29T02:24:54.796Z,10.74
2022-11-29T02:28:04.487Z,10.55
2022-11-29T02:30:52.978Z,10.46
2022-11-29T02:33:47.962Z,10.48
2022-11-29T02:36:25.271Z,10.52
2022-11-29T02:39:32.417Z,10.53
2022-11-29T02:41:59.416Z,10.42
2022-11-29T02:44:53.900Z,10.44
2022-11-29T02:47:25.833Z,10.19
2022-11-29T02:50:55.382Z,10.32
2022-11-29T02:53:37.001Z,10.45
2022-11-29T02:56:28.853Z,10.43
2022-11-29T02:59:39.253Z,10.39
2022-11-29T03:02:35.152Z,10.50
2022-11-29T03:05:23.835Z,10.58
2022-11-29T03:08:13.265Z,10.68
2022-11-29T03:11:07.005Z,10.56
2022-11-29T03:14:07.720Z,10.72
2022-11-29T03:16:46.136Z,10.50
2022-11-29T03:19:29.378Z,10.39
2022-11-29T03:22:20.780Z,10.46
2022-11-29T03:25:02.908Z,10.36
2022-11-29T03:27:53.045Z,10.17
2022-11-29T03:30:21.868Z,10.56
2022-11-29T03:33:16.834Z,10.58
2022-11-29T03:36:12.918Z,10.46
2022-11-29T03:38:46.017Z,10.40
2022-11-29T03:42:14.460Z,10.30
2022-11-29T03:44:52.577Z,10.05
2022-11-29T03:47:35.019Z,10.52
2022-11-29T03:50:11.329Z,10.17
2022-11-29T03:53:01.680Z,10.52
2022-11-29T03:56:04.082Z,10.68
2022-11-29T03:58:50.347Z,10.66
2022-11-29T04:02:07.018Z,10.29
2022-11-29T04:05:28.247Z,10.56
2022-11-29T04:08:38.736Z,10.35
2022-11-29T04:11:54.615Z,10.14
2022-11-29T04:14:51.483Z,10.19
2022-11-29T04:17:56.512Z,10.54
2022-11-29T04:21:15.555Z,10.11
2022-11-29T04:24:06.839Z,9.99
2022-11-29T04:27:17.762Z,9.70
2022-11-29T04:29:50.505Z,9.48
2022-11-29T04:32:34.666Z,9.61
2022-11-29T04:35:38.493Z,9.88
2022-11-29T04:38:40.906Z,9.58
2022-11-29T04:41:34.923Z,9.50
2022-11-29T04:44:31.859Z,9.43
2022-11-29T04:47:39.516Z,9.72
2022-11-29T04:50:27.569Z,9.71
2022-11-29T04:53:33.867Z,9.49
2022-11-29T04:56:45.126Z,9.40
2022-11-29T04:59:27.300Z,9.33
2022-11-29T05:02:22.341Z,9.20
2022-11-29T05:05:32.205Z,9.63
2022-11-29T05:08:33.005Z,9.55
2022-11-29T05:11:35.107Z,9.49
2022-11-29T05:14:17.760Z,8.66
2022-11-29T05:17:40.255Z,9.21
2022-11-29T05:20:19.150Z,9.15
2022-11-29T05:23:22.848Z,9.31
2022-11-29T05:26:22.720Z,9.52
2022-11-29T05:28:57.618Z,9.73
2022-11-29T05:31:49.376Z,9.88
2022-11-29T05:34:35.173Z,9.58
2022-11-29T05:37:47.208Z,9.36
2022-11-29T05:40:43.615Z,9.30
2022-11-29T05:43:51.281Z,9.13
2022-11-29T05:46:34.683Z,9.12
2022-11-29T05:49:21.865Z,8.97
2022-11-29T05:52:25.050Z,8.99
2022-11-29T05:55:16.574Z,9.29
2022-11-29T05:58:10.568Z,9.11
2022-11-29T06:00:51.885Z,9.03
2022-11-29T06:03:43.709Z,9.36
2022-11-29T06:06:47.090Z,9.43
2022-11-29T06:10:00.507Z,8.74
2022-11-29T06:12:31.892Z,8.51
2022-11-29T06:15:56.980Z,8.90
2022-11-29T06:19:25.878Z,9.25
2022-11-29T06:22:05.785Z,8.80
2022-11-29T06:24:53.404Z,8.78
2022-11-29T06:27:39.126Z,8.82
2022-11-29T06:30:13.949Z,8.97
2022-11-29T06:33:21.626Z,8.87
2022-11-29T06:36:19.629Z,8.74
2022-11-29T06:38:47.320Z,8.10
2022-11-29T06:41:21.995Z,8.20
2022-11-29T06:43:50.271Z,8.29
2022-11-29T06:46:31.249Z,8.29
2022-11-29T06:49:28.196Z,8.42
2022-11-29T06:52:29.027Z,8.45
2022-11-29T06:55:17.135Z,8.59
2022-11-29T06:58:43.131Z,8.88
2022-11-29T07:01:20.501Z,8.79
2022-11-29T07:04:29.566Z,8.31
2022-11-29T07:06:57.224Z,8.68
2022-11-29T07:09:34.589Z,8.75
2022-11-29T07:12:02.130Z,8.59
2022-11-29T07:14:29.448Z,8.79
2022-11-29T07:17:15.408Z,8.99
2022-11-29T07:19:54.127Z,8.41
2022-11-29T07:22:55.143Z,8.36
2022-11-29T07:25:51.236Z,8.67
2022-11-29T07:28:53.779Z,8.98
2022-11-29T07:31:42.334Z,8.45
2022-11-29T07:34:40.184Z,8.49
2022-11-29T07:37:48.218Z,8.58
2022-11-29T07:40:25.481Z,8.43
2022-11-29T07:43:22.741Z,9.00
2022-11-29T07:45:51.354Z,8.77
2022-11-29T07:48:19.304Z,9.26
2022-11-29T07:50:46.840Z,9.46
2022-11-29T07:53:19.147Z,8.95
2022-11-29T07:55:47.389Z,9.12
2022-11-29T07:58:16.775Z,9.10
2022-11-29T08:00:44.792Z,9.54
2022-11-29T08:03:12.174Z,9.24
2022-11-29T08:05:39.962Z,9.22
2022-11-29T08:08:07.488Z,9.36
2022-11-29T08:10:35.695Z,9.52
2022-11-29T08:13:02.729Z,9.51
2022-11-29T08:15:30.003Z,9.38
2022-11-29T08:18:19.232Z,9.14
2022-11-29T08:20:46.528Z,9.36
2022-11-29T08:23:15.604Z,9.51
2022-11-29T08:25:42.921Z,9.60
2022-11-29T08:28:09.968Z,9.87
2022-11-29T08:30:37.879Z,9.82
2022-11-29T08:33:05.391Z,10.00
2022-11-29T08:35:34.494Z,10.27
2022-11-29T08:38:01.514Z,9.82
2022-11-29T08:40:28.589Z,10.14
2022-11-29T08:42:58.517Z,10.35
2022-11-29T08:45:25.629Z,10.34
2022-11-29T08:47:52.719Z,10.35
2022-11-29T08:50:19.836Z,10.08
2022-11-29T08:53:07.851Z,10.41
2022-11-29T08:55:42.673Z,10.13
2022-11-29T08:58:14.067Z,10.21
2022-11-29T09:00:46.011Z,10.46
2022-11-29T09:03:32.177Z,10.72
2022-11-29T09:06:07.674Z,10.88
2022-11-29T09:08:39.368Z,10.78
2022-11-29T09:11:22.125Z,11.28
2022-11-29T09:13:53.921Z,11.26
2022-11-29T09:16:25.435Z,11.44
2022-11-29T09:18:54.728Z,11.35
2022-11-29T09:21:24.551Z,11.42
2022-11-29T09:23:58.806Z,11.46
2022-11-29T09:26:35.617Z,11.15
2022-11-29T09:29:06.522Z,11.10
2022-11-29T09:31:34.958Z,10.55
2022-11-29T09:34:02.049Z,10.61
2022-11-29T09:36:30.271Z,11.09
2022-11-29T09:38:58.963Z,11.22
2022-11-29T09:41:58.531Z,11.20
2022-11-29T09:45:01.825Z,11.14
2022-11-29T09:48:15.201Z,11.25
2022-11-29T09:50:58.235Z,10.89
2022-11-29T09:54:22.852Z,10.97
2022-11-29T09:56:55.420Z,11.17
2022-11-29T09:59:37.307Z,11.31
2022-11-29T10:02:45.262Z,11.35
2022-11-29T10:05:21.201Z,10.97
2022-11-29T10:07:57.460Z,11.31
2022-11-29T10:10:41.664Z,11.37
2022-11-29T10:13:29.788Z,11.26
2022-11-29T10:16:06.241Z,11.31
2022-11-29T10:18:50.504Z,11.57
2022-11-29T10:21:35.401Z,11.58
2022-11-29T10:24:14.640Z,11.54
2022-11-29T10:26:43.461Z,11.34
2022-11-29T10:29:16.181Z,10.99
2022-11-29T10:31:49.459Z,11.37
2022-11-29T10:34:21.055Z,11.48
2022-11-29T10:37:02.355Z,11.39
2022-11-29T10:39:53.879Z,11.54
2022-11-29T10:42:43.911Z,11.48
2022-11-29T10:45:27.297Z,11.69
2022-11-29T10:48:02.173Z,11.72
2022-11-29T10:50:52.800Z,11.61
2022-11-29T10:53:32.602Z,11.74
2022-11-29T10:56:01.910Z,11.98
2022-11-29T10:58:31.071Z,11.40
2022-11-29T11:01:06.557Z,11.38
2022-11-29T11:03:55.751Z,11.70
2022-11-29T11:06:46.427Z,11.75
2022-11-29T11:09:48.769Z,12.15
2022-11-29T11:12:15.941Z,11.99
2022-11-29T11:14:45.014Z,12.07
2022-11-29T11:17:26.611Z,11.23
2022-11-29T11:20:06.135Z,12.05
2022-11-29T11:22:34.187Z,11.54
2022-11-29T11:25:25.226Z,11.27
2022-11-29T11:27:52.426Z,11.39
2022-11-29T11:30:27.370Z,11.35
2022-11-29T11:33:30.093Z,11.98
2022-11-29T11:36:21.121Z,11.49
2022-11-29T11:38:59.522Z,11.52
2022-11-29T11:41:53.991Z,11.72
2022-11-29T11:47:22.477Z,11.68
2022-11-29T11:50:04.397Z,11.76
2022-11-29T11:52:53.275Z,11.36
2022-11-29T11:55:33.311Z,10.83
2022-11-29T11:58:11.846Z,11.46
2022-11-29T12:01:05.872Z,11.75
2022-11-29T12:03:45.562Z,11.27
2022-11-29T12:06:48.027Z,11.01
2022-11-29T12:09:41.343Z,11.08
2022-11-29T12:12:16.121Z,11.49
2022-11-29T12:15:03.439Z,11.15
2022-11-29T12:17:44.419Z,10.92
2022-11-29T12:21:00.471Z,11.46
2022-11-29T12:23:53.142Z,11.53
2022-11-29T12:26:56.600Z,11.72
2022-11-29T12:29:22.497Z,11.83
2022-11-29T12:32:19.594Z,11.77
2022-11-29T12:35:02.171Z,11.62
2022-11-29T12:38:17.141Z,11.61
2022-11-29T12:41:19.172Z,11.40
2022-11-29T12:44:18.399Z,11.53
2022-11-29T12:47:13.228Z,11.06
2022-11-29T12:50:21.487Z,11.43
2022-11-29T12:53:10.968Z,11.12
2022-11-29T12:56:18.902Z,12.04
2022-11-29T12:59:22.707Z,11.16
2022-11-29T13:02:24.724Z,10.99
2022-11-29T13:05:15.198Z,11.14
2022-11-29T13:08:15.320Z,11.01
2022-11-29T13:11:13.201Z,10.68
2022-11-29T13:13:52.305Z,11.14
2022-11-29T13:17:06.125Z,10.87
2022-11-29T13:19:56.003Z,10.58
2022-11-29T13:22:33.022Z,11.30
2022-11-29T13:25:24.268Z,11.29
2022-11-29T13:28:29.328Z,10.67
2022-11-29T13:31:12.264Z,10.87
2022-11-29T13:33:52.854Z,10.89
2022-11-29T13:36:54.620Z,11.00
2022-11-29T13:39:52.796Z,11.09
2022-11-29T13:42:55.481Z,10.69
2022-11-29T13:45:36.615Z,11.06
2022-11-29T13:48:31.843Z,10.63
2022-11-29T13:51:19.392Z,10.37
2022-11-29T13:53:49.142Z,10.47
2022-11-29T13:56:42.788Z,10.71
2022-11-29T13:59:22.682Z,10.62
2022-11-29T14:01:53.988Z,10.85
2022-11-29T14:04:25.779Z,10.60
2022-11-29T14:07:05.044Z,9.90
2022-11-29T14:10:01.287Z,10.18
2022-11-29T14:12:49.168Z,9.78
2022-11-29T14:15:32.087Z,10.52
2022-11-29T14:18:08.573Z,10.50
2022-11-29T14:20:45.700Z,10.41
2022-11-29T14:23:12.599Z,10.67
2022-11-29T14:26:02.921Z,10.66
2022-11-29T14:28:40.856Z,10.77
2022-11-29T14:31:11.114Z,10.83
2022-11-29T14:33:50.365Z,10.83
2022-11-29T14:36:50.505Z,10.27
2022-11-29T14:39:48.005Z,10.34
2022-11-29T14:42:24.748Z,10.38
2022-11-29T14:45:00.701Z,10.52
2022-11-29T14:47:39.040Z,10.36
2022-11-29T14:50:09.851Z,10.17
2022-11-29T14:52:51.188Z,10.15
2022-11-29T14:55:18.275Z,10.04
2022-11-29T14:57:47.956Z,10.09
2022-11-29T15:00:23.619Z,10.29
2022-11-29T15:03:13.973Z,10.07
2022-11-29T15:05:53.862Z,9.97
2022-11-29T15:08:29.683Z,10.17
2022-11-29T15:11:10.964Z,9.87
2022-11-29T15:14:09.431Z,10.22
2022-11-29T15:16:49.965Z,10.17
2022-11-29T15:20:06.880Z,9.72
2022-11-29T15:25:32.208Z,10.16
2022-11-29T15:28:05.881Z,10.22
2022-11-29T15:30:41.664Z,10.17
2022-11-29T15:33:24.198Z,9.91
2022-11-29T15:36:20.235Z,9.82
2022-11-29T15:38:55.965Z,10.03
2022-11-29T15:41:29.954Z,10.17
2022-11-29T15:44:00.653Z,9.58
2022-11-29T15:46:30.951Z,9.75
2022-11-29T15:49:17.964Z,10.21
2022-11-29T15:51:50.399Z,10.17
2022-11-29T15:54:42.368Z,9.85
2022-11-29T15:57:31.615Z,9.94
2022-11-29T16:00:06.749Z,10.34
2022-11-29T16:02:46.415Z,9.86
2022-11-29T16:05:25.243Z,9.87
2022-11-29T16:07:58.408Z,9.76
2022-11-29T16:10:40.972Z,9.75
2022-11-29T16:13:40.607Z,9.96
2022-11-29T16:16:20.951Z,10.21
2022-11-29T16:18:50.457Z,10.09
2022-11-29T16:21:30.702Z,10.00
2022-11-29T16:23:59.048Z,10.32
2022-11-29T16:26:34.631Z,9.99
2022-11-29T16:29:02.000Z,10.57
2022-11-29T16:31:37.913Z,9.54
2022-11-29T16:34:33.820Z,9.86
2022-11-29T16:37:14.377Z,9.75
2022-11-29T16:39:48.044Z,9.93
2022-11-29T16:42:26.165Z,9.95
2022-11-29T16:45:02.477Z,10.02
2022-11-29T16:47:59.592Z,10.24
2022-11-29T16:50:31.935Z,10.21
2022-11-29T16:53:36.970Z,10.35
2022-11-29T16:56:05.865Z,10.15
2022-11-29T16:58:38.756Z,10.55
2022-11-29T17:01:18.146Z,9.90
2022-11-29T17:03:45.805Z,10.48
2022-11-29T17:06:21.132Z,10.35
2022-11-29T17:08:48.762Z,9.92
2022-11-29T17:11:15.914Z,10.06
2022-11-29T17:13:43.131Z,10.50
2022-11-29T17:16:15.891Z,10.09
2022-11-29T17:18:43.444Z,10.29
2022-11-29T17:21:26.475Z,10.56
2022-11-29T17:23:54.294Z,10.54
2022-11-29T17:26:22.491Z,10.40
2022-11-29T17:28:51.549Z,10.29
2022-11-29T17:31:22.485Z,10.65
2022-11-29T17:33:50.032Z,10.56
2022-11-29T17:36:20.799Z,10.06
2022-11-29T17:38:48.830Z,10.26
2022-11-29T17:41:23.027Z,10.53
2022-11-29T17:43:51.577Z,9.96
2022-11-29T17:46:34.933Z,10.13
2022-11-29T17:49:06.014Z,10.14
2022-11-29T17:54:23.006Z,10.02
2022-11-29T17:56:50.732Z,10.10
2022-11-29T17:59:17.888Z,9.96
2022-11-29T18:01:47.404Z,9.74
2022-11-29T18:04:14.788Z,9.63
2022-11-29T18:06:42.125Z,9.92
2022-11-29T18:09:11.205Z,9.89
2022-11-29T18:11:48.528Z,10.21
2022-11-29T18:14:20.559Z,9.92
2022-11-29T18:16:47.924Z,9.35
2022-11-29T18:19:18.449Z,10.16
2022-11-29T18:21:45.792Z,10.20
2022-11-29T18:24:13.078Z,10.10
2022-11-29T18:26:40.821Z,9.75
2022-11-29T18:29:08.938Z,10.18
2022-11-29T18:31:39.790Z,10.36
2022-11-29T18:34:11.599Z,10.05
2022-11-29T18:36:45.124Z,10.14
2022-11-29T18:39:18.998Z,10.19
2022-11-29T18:41:49.096Z,9.80
2022-11-29T18:44:19.595Z,9.82
2022-11-29T18:46:48.088Z,10.01
2022-11-29T18:49:17.456Z,10.16
2022-11-29T18:51:46.436Z,9.93
2022-11-29T18:54:15.553Z,10.16
2022-11-29T18:56:43.946Z,9.53
2022-11-29T18:59:16.403Z,9.97
2022-11-29T19:01:45.317Z,9.97
2022-11-29T19:04:19.629Z,10.06
2022-11-29T19:06:47.100Z,9.97
2022-11-29T19:09:21.201Z,10.24
2022-11-29T19:11:49.765Z,10.17
2022-11-29T19:14:17.260Z,10.32
2022-11-29T19:16:47.802Z,9.86
2022-11-29T19:19:15.018Z,9.97
2022-11-29T19:21:42.488Z,9.63
2022-11-29T19:24:14.863Z,9.65
2022-11-29T19:26:45.064Z,9.81
2022-11-29T19:29:13.734Z,9.84
2022-11-29T19:31:40.989Z,10.05
2022-11-29T19:34:08.104Z,10.25
2022-11-29T19:36:37.266Z,10.29
2022-11-29T19:39:04.929Z,10.28
2022-11-29T19:41:34.398Z,10.35
2022-11-29T19:44:08.582Z,10.28
2022-11-29T19:46:44.165Z,9.84
2022-11-29T19:49:32.642Z,10.10
2022-11-29T19:51:59.576Z,10.14
2022-11-29T19:54:26.718Z,10.21
2022-11-29T19:56:55.665Z,10.18
2022-11-29T19:59:22.888Z,9.59
2022-11-29T20:01:50.010Z,9.97
2022-11-29T20:04:17.582Z,9.90
2022-11-29T20:06:45.645Z,10.14
2022-11-29T20:09:13.875Z,10.01
2022-11-29T20:11:40.945Z,9.94
2022-11-29T20:14:10.213Z,9.88
2022-11-29T20:16:40.330Z,10.15
2022-11-29T20:19:14.609Z,9.89
2022-11-29T20:21:45.987Z,9.82
2022-11-29T20:24:14.525Z,9.72
2022-11-29T20:26:45.743Z,10.08
2022-11-29T20:29:13.946Z,10.18
2022-11-29T20:31:49.082Z,9.74
2022-11-29T20:34:17.270Z,9.86
2022-11-29T20:37:15.031Z,10.19
2022-11-29T20:40:01.764Z,10.05
2022-11-29T20:42:28.799Z,10.12
2022-11-29T20:45:01.948Z,9.76
2022-11-29T20:47:47.285Z,9.87
2022-11-29T20:50:27.251Z,9.98
2022-11-29T20:53:36.211Z,10.03
2022-11-29T20:56:05.364Z,10.16
2022-11-29T20:58:34.229Z,10.19
2022-11-29T21:01:01.948Z,9.96
2022-11-29T21:03:29.717Z,9.29
2022-11-29T21:06:01.025Z,9.71
2022-11-29T21:08:28.218Z,9.48
2022-11-29T21:11:00.725Z,9.77
2022-11-29T21:13:28.124Z,9.74
2022-11-29T21:15:55.755Z,10.35
2022-11-29T21:18:28.281Z,9.97
2022-11-29T21:21:16.360Z,9.95
2022-11-29T21:24:14.164Z,10.21
2022-11-29T21:26:50.853Z,9.41
2022-11-29T21:29:23.043Z,9.46
2022-11-29T21:31:54.255Z,9.96
2022-11-29T21:34:22.152Z,10.11
2022-11-29T21:36:58.512Z,10.07
2022-11-29T21:39:35.118Z,9.95
2022-11-29T21:42:02.890Z,9.74
2022-11-29T21:44:30.062Z,9.57
2022-11-29T21:46:57.056Z,9.36
2022-11-29T21:49:24.083Z,9.68
2022-11-29T21:51:51.057Z,9.89
2022-11-29T21:54:20.656Z,9.75
2022-11-29T21:56:47.731Z,9.75
2022-11-29T21:59:14.640Z,9.62
2022-11-29T22:01:41.667Z,9.94
2022-11-29T22:04:09.138Z,9.61
2022-11-29T22:06:37.004Z,9.62
2022-11-29T22:09:05.022Z,9.51
2022-11-29T22:11:33.931Z,9.65
2022-11-29T22:14:17.044Z,9.56
2022-11-29T22:16:57.473Z,9.42
2022-11-29T22:19:25.221Z,9.86
2022-11-29T22:21:55.658Z,9.37
2022-11-29T22:24:26.253Z,9.41
2022-11-29T22:26:54.609Z,9.28
2022-11-29T22:29:23.451Z,9.74
2022-11-29T22:31:53.184Z,9.53
2022-11-29T22:34:21.071Z,9.84
2022-11-29T22:36:48.013Z,9.75
2022-11-29T22:39:15.341Z,9.58
2022-11-29T22:41:42.677Z,9.38
2022-11-29T22:44:09.649Z,9.86
2022-11-29T22:46:41.114Z,9.73
2022-11-29T22:49:08.166Z,9.65
2022-11-29T22:51:37.883Z,9.70
2022-11-29T22:54:08.914Z,9.37
2022-11-29T22:56:40.209Z,9.86
2022-11-29T22:59:08.301Z,10.05
2022-11-29T23:01:38.175Z,9.65
2022-11-29T23:04:08.232Z,9.46
2022-11-29T23:06:44.202Z,9.69
2022-11-29T23:09:22.482Z,9.59
2022-11-29T23:11:54.387Z,9.70
2022-11-29T23:14:22.490Z,9.91
2022-11-29T23:16:49.702Z,9.53
2022-11-29T23:19:17.342Z,9.56
2022-11-29T23:21:45.554Z,9.79
2022-11-29T23:24:14.336Z,9.81
2022-11-29T23:26:45.656Z,9.63
2022-11-29T23:29:16.608Z,9.83
2022-11-29T23:31:44.257Z,10.00
2022-11-29T23:34:11.705Z,9.92
2022-11-29T23:36:38.797Z,10.21
2022-11-29T23:39:06.919Z,10.19
2022-11-29T23:41:36.282Z,10.43
2022-11-29T23:44:05.161Z,10.27
2022-11-29T23:46:32.776Z,10.38
2022-11-29T23:48:59.890Z,9.96
2022-11-29T23:51:27.228Z,10.08
2022-11-29T23:53:55.147Z,10.20
2022-11-29T23:56:23.049Z,9.65
2022-11-29T23:58:50.365Z,10.06
